createdAt,value
2019-03-26T16:43:56.430Z,2.23
2019-03-26T16:44:56.193Z,3.02
2019-03-26T16:45:56.226Z,2.68
2019-03-26T16:46:56.203Z,3.11
2019-03-26T16:47:56.196Z,2.85
2019-03-26T16:48:56.274Z,2.92
2019-03-26T16:49:56.197Z,4.37
2019-03-26T16:50:56.223Z,3.48
2019-03-26T16:51:56.229Z,2.61
2019-03-26T16:52:56.226Z,2.80
2019-03-26T16:53:56.227Z,2.55
2019-03-26T16:54:56.260Z,3.50
2019-03-26T16:55:56.191Z,3.59
2019-03-26T16:56:56.232Z,3.28
2019-03-26T16:57:56.252Z,3.65
2019-03-26T16:58:56.234Z,2.41
2019-03-26T16:59:56.224Z,2.53
2019-03-26T17:00:56.282Z,2.91
2019-03-26T17:01:56.225Z,2.04
2019-03-26T17:02:56.233Z,1.98
2019-03-26T17:03:56.273Z,3.47
2019-03-26T17:04:56.301Z,2.70
2019-03-26T17:05:56.244Z,1.58
2019-03-26T17:06:56.253Z,2.09
2019-03-26T17:07:56.211Z,1.34
2019-03-26T17:08:56.257Z,3.49
2019-03-26T17:09:56.240Z,3.32
2019-03-26T17:10:56.221Z,2.67
2019-03-26T17:12:03.002Z,3.42
2019-03-26T17:12:56.274Z,4.81
2019-03-26T17:13:56.254Z,2.74
2019-03-26T17:14:56.225Z,2.41
2019-03-26T17:15:56.287Z,3.34
2019-03-26T17:16:56.225Z,2.71
2019-03-26T17:17:56.236Z,3.28
2019-03-26T17:18:56.263Z,3.76
2019-03-26T17:19:56.220Z,2.88
2019-03-26T17:20:56.240Z,2.52
2019-03-26T17:21:56.247Z,1.58
2019-03-26T17:22:56.242Z,2.25
2019-03-26T17:23:56.261Z,2.22
2019-03-26T17:24:56.260Z,3.02
2019-03-26T17:25:56.244Z,2.48
2019-03-26T17:26:56.246Z,3.36
2019-03-26T17:27:56.257Z,2.93
2019-03-26T17:28:56.248Z,2.66
2019-03-26T17:29:56.238Z,2.91
2019-03-26T17:30:56.289Z,1.96
2019-03-26T17:31:56.239Z,0.58
2019-03-26T17:32:56.241Z,0.04
2019-03-26T17:33:56.288Z,0.65
2019-03-26T17:34:56.247Z,0.44
2019-03-26T17:35:56.260Z,0.97
2019-03-26T17:36:56.299Z,0.32
2019-03-26T17:37:59.942Z,0.35
2019-03-26T17:38:56.265Z,0.17
2019-03-26T17:39:56.291Z,0.31
2019-03-26T17:40:56.249Z,0.52
2019-03-26T17:41:56.360Z,1.22
2019-03-26T17:42:56.366Z,0.42
2019-03-26T17:43:56.279Z,0.64
2019-03-26T17:44:58.353Z,1.66
2019-03-26T17:45:56.291Z,1.42
2019-03-26T17:46:56.237Z,2.29
2019-03-26T17:47:56.516Z,1.99
2019-03-26T17:48:56.286Z,1.31
2019-03-26T17:49:56.468Z,1.29
2019-03-26T17:50:56.244Z,2.48
2019-03-26T17:51:56.282Z,2.47
2019-03-26T17:52:56.251Z,0.83
2019-03-26T17:53:56.300Z,0.00
2019-03-26T17:54:56.310Z,0.00
2019-03-26T17:55:56.263Z,0.00
2019-03-26T17:56:56.280Z,0.23
2019-03-26T17:57:56.359Z,0.00
2019-03-26T17:58:56.244Z,0.00
2019-03-26T17:59:56.295Z,0.00
2019-03-26T18:00:56.301Z,0.00
2019-03-26T18:01:56.279Z,0.00
2019-03-26T18:02:56.254Z,0.00
2019-03-26T18:03:56.286Z,0.01
2019-03-26T18:04:56.289Z,0.47
2019-03-26T18:05:56.294Z,0.25
2019-03-26T18:06:56.285Z,0.00
2019-03-26T18:07:56.275Z,0.01
2019-03-26T18:08:56.276Z,0.14
2019-03-26T18:09:56.340Z,0.00
2019-03-26T18:10:56.287Z,0.00
2019-03-26T18:11:56.265Z,0.39
2019-03-26T18:12:56.313Z,0.52
2019-03-26T18:13:56.286Z,1.29
2019-03-26T18:14:56.305Z,0.25
2019-03-26T18:15:56.308Z,0.83
2019-03-26T18:16:56.286Z,1.37
2019-03-26T18:17:56.290Z,0.50
2019-03-26T18:18:56.299Z,0.60
2019-03-26T18:19:56.299Z,1.16
2019-03-26T18:20:56.302Z,1.74
2019-03-26T18:21:56.297Z,1.40
2019-03-26T18:22:56.284Z,1.32
2019-03-26T18:23:56.259Z,1.84
2019-03-26T18:24:56.331Z,0.85
2019-03-26T18:25:56.283Z,0.20
2019-03-26T18:26:56.270Z,0.24
2019-03-26T18:27:56.319Z,0.07
2019-03-26T18:28:56.326Z,0.02
2019-03-26T18:29:56.322Z,0.00
2019-03-26T18:30:56.310Z,0.00
2019-03-26T18:31:56.294Z,0.78
2019-03-26T18:32:56.303Z,0.83
2019-03-26T18:33:56.343Z,1.35
2019-03-26T18:34:56.357Z,1.92
2019-03-26T18:35:56.440Z,1.44
2019-03-26T18:36:56.425Z,1.99
2019-03-26T18:37:56.366Z,1.52
2019-03-26T18:38:56.399Z,0.61
2019-03-26T18:39:56.421Z,1.13
2019-03-26T18:40:56.377Z,1.17
2019-03-26T18:41:56.410Z,1.81
2019-03-26T18:42:56.447Z,2.27
2019-03-26T18:43:56.417Z,1.47
2019-03-26T18:44:56.485Z,1.37
2019-03-26T18:45:56.538Z,1.54
2019-03-26T18:46:56.523Z,1.90
2019-03-26T18:47:56.523Z,1.72
2019-03-26T18:48:56.481Z,0.99
2019-03-26T18:49:56.499Z,1.00
2019-03-26T18:50:56.492Z,0.81
2019-03-26T18:51:56.561Z,0.54
2019-03-26T18:52:56.542Z,0.00
2019-03-26T18:53:56.571Z,1.11
2019-03-26T18:54:56.676Z,1.24
2019-03-26T18:55:56.606Z,0.76
2019-03-26T18:56:56.646Z,0.54
2019-03-26T18:57:56.728Z,0.01
2019-03-26T18:58:56.636Z,0.02
2019-03-26T18:59:56.631Z,0.51
2019-03-26T19:00:56.651Z,0.09
2019-03-26T19:01:56.611Z,0.02
2019-03-26T19:02:56.658Z,0.15
2019-03-26T19:03:56.767Z,0.00
2019-03-26T19:04:56.681Z,0.00
2019-03-26T19:05:56.704Z,0.14
2019-03-26T19:06:56.745Z,1.17
2019-03-26T19:07:56.770Z,0.92
2019-03-26T19:08:56.780Z,0.50
2019-03-26T19:09:56.832Z,0.62
2019-03-26T19:10:56.748Z,0.83
2019-03-26T19:11:56.746Z,0.92
2019-03-26T19:12:57.350Z,0.57
2019-03-26T19:13:56.810Z,1.08
2019-03-26T19:14:56.789Z,1.36
2019-03-26T19:15:56.830Z,0.71
2019-03-26T19:16:56.827Z,0.24
2019-03-26T19:17:56.829Z,0.49
2019-03-26T19:18:56.915Z,1.71
2019-03-26T19:19:58.427Z,1.03
2019-03-26T19:21:02.438Z,1.06
2019-03-26T19:21:56.894Z,1.16
2019-03-26T19:22:56.887Z,1.53
2019-03-26T19:24:03.864Z,1.32
2019-03-26T19:24:56.926Z,0.85
2019-03-26T19:25:56.893Z,0.82
2019-03-26T19:26:56.912Z,0.27
2019-03-26T19:27:56.956Z,0.39
2019-03-26T19:28:56.895Z,0.72
2019-03-26T19:29:56.894Z,0.72
2019-03-26T19:30:56.921Z,0.75
2019-03-26T19:31:56.892Z,0.99
2019-03-26T19:32:57.869Z,0.52
2019-03-26T19:33:56.962Z,1.84
2019-03-26T19:34:56.930Z,1.58
2019-03-26T19:35:56.896Z,1.46
2019-03-26T19:36:56.944Z,1.59
2019-03-26T19:37:56.918Z,1.08
2019-03-26T19:38:56.949Z,1.09
2019-03-26T19:39:56.945Z,0.74
2019-03-26T19:40:56.901Z,0.92
2019-03-26T19:41:56.911Z,1.25
2019-03-26T19:43:09.744Z,1.65
2019-03-26T19:43:56.912Z,1.81
2019-03-26T19:44:56.925Z,1.41
2019-03-26T19:45:56.960Z,1.37
2019-03-26T19:46:56.918Z,1.18
2019-03-26T19:47:56.931Z,0.39
2019-03-26T19:48:56.956Z,0.67
2019-03-26T19:49:56.899Z,1.00
2019-03-26T19:50:56.943Z,0.97
2019-03-26T19:51:56.921Z,0.64
2019-03-26T19:52:56.920Z,1.53
2019-03-26T19:53:56.913Z,1.86
2019-03-26T19:54:56.936Z,0.92
2019-03-26T19:55:56.935Z,1.66
2019-03-26T19:56:56.954Z,0.76
2019-03-26T19:57:56.949Z,0.56
2019-03-26T19:58:56.908Z,2.53
2019-03-26T19:59:56.931Z,1.11
2019-03-26T20:00:56.957Z,0.61
2019-03-26T20:01:56.949Z,2.12
2019-03-26T20:02:56.926Z,1.07
2019-03-26T20:03:56.997Z,1.08
2019-03-26T20:04:56.928Z,1.58
2019-03-26T20:05:56.941Z,1.35
2019-03-26T20:06:56.999Z,1.38
2019-03-26T20:07:56.921Z,1.79
2019-03-26T20:08:56.962Z,2.43
2019-03-26T20:09:56.966Z,1.85
2019-03-26T20:10:56.920Z,1.83
2019-03-26T20:11:56.960Z,0.82
2019-03-26T20:12:56.956Z,1.93
2019-03-26T20:13:56.954Z,1.60
2019-03-26T20:14:56.927Z,2.46
2019-03-26T20:15:56.950Z,1.90
2019-03-26T20:16:56.962Z,1.27
2019-03-26T20:17:56.955Z,0.74
2019-03-26T20:18:56.982Z,0.91
2019-03-26T20:19:56.955Z,1.57
2019-03-26T20:20:56.930Z,2.28
2019-03-26T20:21:56.974Z,3.62
2019-03-26T20:22:56.953Z,2.96
2019-03-26T20:23:56.941Z,3.12
2019-03-26T20:24:56.968Z,4.69
2019-03-26T20:25:56.933Z,2.97
2019-03-26T20:26:56.958Z,2.86
2019-03-26T20:27:56.975Z,3.39
2019-03-26T20:28:56.944Z,4.19
2019-03-26T20:29:56.942Z,4.98
2019-03-26T20:30:56.974Z,1.72
2019-03-26T20:31:56.932Z,3.28
2019-03-26T20:32:56.959Z,2.18
2019-03-26T20:33:57.045Z,2.52
2019-03-26T20:34:56.943Z,2.99
2019-03-26T20:35:56.931Z,3.69
2019-03-26T20:36:56.980Z,1.82
2019-03-26T20:37:57.041Z,2.35
2019-03-26T20:38:57.016Z,3.21
2019-03-26T20:39:56.972Z,3.47
2019-03-26T20:40:56.950Z,3.72
2019-03-26T20:41:56.950Z,2.74
2019-03-26T20:42:56.985Z,1.44
2019-03-26T20:43:56.979Z,1.41
2019-03-26T20:44:56.964Z,2.54
2019-03-26T20:45:56.993Z,4.16
2019-03-26T20:46:56.957Z,2.93
2019-03-26T20:47:56.973Z,1.50
2019-03-26T20:48:57.006Z,1.36
2019-03-26T20:49:56.979Z,1.13
2019-03-26T20:50:57.387Z,0.71
2019-03-26T20:51:56.999Z,0.71
2019-03-26T20:52:56.934Z,2.64
2019-03-26T20:53:56.955Z,3.06
2019-03-26T20:54:57.001Z,1.21
2019-03-26T20:55:56.951Z,0.86
2019-03-26T20:56:56.942Z,1.13
2019-03-26T20:57:56.993Z,2.40
2019-03-26T20:58:56.958Z,1.91
2019-03-26T20:59:57.002Z,1.24
2019-03-26T21:00:56.995Z,0.70
2019-03-26T21:01:56.959Z,0.55
2019-03-26T21:02:56.966Z,0.79
2019-03-26T21:03:57.011Z,0.51
2019-03-26T21:04:56.972Z,0.64
2019-03-26T21:05:56.954Z,0.52
2019-03-26T21:06:57.014Z,0.35
2019-03-26T21:07:56.977Z,2.31
2019-03-26T21:08:56.967Z,1.21
2019-03-26T21:09:57.008Z,0.32
2019-03-26T21:10:56.967Z,1.02
2019-03-26T21:11:56.988Z,2.26
2019-03-26T21:12:56.947Z,1.58
2019-03-26T21:13:56.965Z,2.02
2019-03-26T21:14:56.999Z,1.19
2019-03-26T21:15:57.713Z,0.92
2019-03-26T21:16:56.993Z,0.33
2019-03-26T21:17:56.984Z,1.46
2019-03-26T21:18:57.011Z,1.87
2019-03-26T21:19:57.014Z,2.08
2019-03-26T21:20:57.059Z,1.95
2019-03-26T21:21:57.045Z,1.58
2019-03-26T21:22:56.970Z,2.08
2019-03-26T21:23:57.003Z,4.57
2019-03-26T21:24:56.974Z,2.59
2019-03-26T21:25:57.001Z,3.12
2019-03-26T21:26:56.978Z,2.01
2019-03-26T21:27:57.033Z,2.79
2019-03-26T21:28:57.009Z,2.64
2019-03-26T21:30:09.713Z,1.50
2019-03-26T21:30:57.046Z,1.76
2019-03-26T21:31:56.995Z,2.60
2019-03-26T21:32:57.008Z,2.96
2019-03-26T21:33:57.044Z,2.87
2019-03-26T21:34:57.051Z,2.07
2019-03-26T21:35:56.991Z,2.98
2019-03-26T21:36:57.021Z,2.56
2019-03-26T21:37:56.981Z,3.38
2019-03-26T21:38:56.997Z,2.25
2019-03-26T21:39:57.038Z,1.70
2019-03-26T21:40:57.016Z,2.84
2019-03-26T21:41:56.999Z,1.82
2019-03-26T21:42:57.019Z,1.87
2019-03-26T21:44:04.216Z,1.22
2019-03-26T21:44:57.028Z,2.91
2019-03-26T21:45:57.057Z,2.71
2019-03-26T21:46:56.997Z,2.52
2019-03-26T21:47:57.011Z,2.27
2019-03-26T21:48:57.043Z,2.20
2019-03-26T21:49:56.991Z,3.33
2019-03-26T21:50:56.996Z,1.57
2019-03-26T21:51:57.041Z,1.26
2019-03-26T21:52:57.018Z,0.16
2019-03-26T21:53:57.039Z,2.57
2019-03-26T21:54:57.028Z,2.50
2019-03-26T21:56:06.190Z,1.73
2019-03-26T21:56:57.029Z,2.46
2019-03-26T21:57:57.095Z,2.12
2019-03-26T21:58:57.022Z,1.50
2019-03-26T21:59:56.991Z,1.77
2019-03-26T22:00:57.034Z,1.68
2019-03-26T22:01:56.989Z,1.07
2019-03-26T22:02:56.988Z,1.04
2019-03-26T22:03:57.068Z,2.01
2019-03-26T22:04:56.998Z,4.10
2019-03-26T22:05:57.029Z,2.04
2019-03-26T22:06:57.043Z,0.61
2019-03-26T22:07:57.002Z,0.00
2019-03-26T22:08:57.013Z,0.00
2019-03-26T22:09:57.042Z,0.25
2019-03-26T22:10:57.012Z,0.00
2019-03-26T22:11:57.016Z,0.05
2019-03-26T22:12:57.034Z,0.44
2019-03-26T22:13:57.023Z,0.60
2019-03-26T22:14:57.015Z,1.30
2019-03-26T22:15:57.058Z,0.22
2019-03-26T22:16:57.039Z,0.24
2019-03-26T22:17:57.022Z,0.23
2019-03-26T22:18:57.025Z,1.09
2019-03-26T22:19:57.000Z,1.25
2019-03-26T22:20:57.007Z,2.29
2019-03-26T22:21:57.060Z,1.16
2019-03-26T22:22:57.196Z,1.16
2019-03-26T22:23:57.053Z,1.18
2019-03-26T22:24:57.045Z,1.01
2019-03-26T22:25:57.045Z,1.31
2019-03-26T22:26:57.044Z,0.11
2019-03-26T22:27:57.073Z,0.18
2019-03-26T22:28:57.050Z,0.43
2019-03-26T22:29:57.051Z,0.72
2019-03-26T22:30:57.063Z,0.13
2019-03-26T22:31:57.018Z,0.04
2019-03-26T22:32:57.041Z,0.00
2019-03-26T22:33:57.081Z,0.00
2019-03-26T22:34:57.053Z,0.00
2019-03-26T22:35:57.020Z,0.00
2019-03-26T22:36:57.082Z,0.00
2019-03-26T22:37:57.020Z,0.00
2019-03-26T22:38:57.051Z,0.00
2019-03-26T22:39:57.084Z,0.00
2019-03-26T22:40:57.051Z,0.00
2019-03-26T22:41:57.071Z,0.00
2019-03-26T22:42:57.081Z,0.04
2019-03-26T22:43:57.022Z,0.71
2019-03-26T22:44:57.019Z,0.83
2019-03-26T22:45:57.078Z,0.35
2019-03-26T22:46:57.063Z,0.41
2019-03-26T22:47:57.046Z,0.00
2019-03-26T22:48:57.092Z,0.01
2019-03-26T22:49:57.344Z,0.64
2019-03-26T22:50:57.073Z,0.79
2019-03-26T22:51:57.094Z,0.12
2019-03-26T22:52:57.062Z,0.00
2019-03-26T22:53:57.049Z,0.00
2019-03-26T22:54:57.068Z,0.00
2019-03-26T22:55:57.051Z,0.00
2019-03-26T22:56:57.022Z,0.00
2019-03-26T22:57:57.073Z,0.01
2019-03-26T22:58:57.053Z,0.54
2019-03-26T22:59:57.077Z,0.02
2019-03-26T23:00:57.056Z,0.00
2019-03-26T23:01:57.057Z,0.00
2019-03-26T23:02:57.051Z,0.00
2019-03-26T23:03:57.084Z,0.00
2019-03-26T23:04:57.081Z,0.00
2019-03-26T23:05:57.063Z,0.00
2019-03-26T23:06:57.087Z,0.00
2019-03-26T23:07:57.024Z,0.00
2019-03-26T23:08:57.027Z,0.00
2019-03-26T23:09:57.076Z,0.11
2019-03-26T23:10:57.063Z,0.84
2019-03-26T23:11:57.062Z,0.46
2019-03-26T23:12:57.132Z,0.00
2019-03-26T23:13:57.067Z,0.28
2019-03-26T23:14:57.053Z,0.40
2019-03-26T23:15:57.092Z,2.09
2019-03-26T23:16:57.051Z,0.89
2019-03-26T23:17:57.050Z,0.65
2019-03-26T23:18:57.090Z,0.31
2019-03-26T23:19:57.052Z,0.22
2019-03-26T23:20:57.068Z,0.99
2019-03-26T23:21:57.098Z,0.66
2019-03-26T23:22:57.089Z,0.28
2019-03-26T23:23:57.039Z,0.21
2019-03-26T23:24:57.090Z,0.64
2019-03-26T23:25:57.130Z,1.68
2019-03-26T23:26:57.090Z,1.76
2019-03-26T23:27:57.083Z,2.00
2019-03-26T23:28:57.114Z,1.47
2019-03-26T23:29:57.050Z,1.44
2019-03-26T23:30:57.155Z,1.94
2019-03-26T23:31:57.066Z,1.54
2019-03-26T23:32:57.068Z,1.86
2019-03-26T23:33:57.110Z,1.17
2019-03-26T23:34:57.072Z,1.23
2019-03-26T23:35:57.108Z,1.61
2019-03-26T23:36:57.109Z,2.67
2019-03-26T23:37:57.052Z,2.77
2019-03-26T23:38:57.091Z,2.54
2019-03-26T23:39:57.113Z,1.08
2019-03-26T23:40:57.090Z,2.93
2019-03-26T23:41:57.106Z,1.99
2019-03-26T23:42:57.099Z,6.53
2019-03-26T23:43:57.048Z,3.61
2019-03-26T23:44:58.567Z,4.11
2019-03-26T23:45:57.118Z,3.01
2019-03-26T23:46:57.087Z,1.73
2019-03-26T23:47:57.105Z,4.56
2019-03-26T23:48:57.094Z,4.25
2019-03-26T23:49:57.069Z,3.74
2019-03-26T23:50:57.084Z,5.81
2019-03-26T23:51:57.133Z,5.55
2019-03-26T23:52:57.077Z,3.87
2019-03-26T23:53:57.087Z,3.85
2019-03-26T23:54:57.120Z,3.39
2019-03-26T23:55:57.073Z,5.49
2019-03-26T23:56:57.095Z,3.84
2019-03-26T23:57:57.106Z,3.81
2019-03-26T23:58:57.074Z,4.40
2019-03-26T23:59:57.081Z,3.49
